map of TBZ home
TBZ - Airport
Location
City:  Tabriz, Azarbayjan-e Sharqi, Iran
Name:Tabriz International Airport
ICAO:OITT
IATA:TBZ

Details
Type:Airport (Aerodrome, Airfield)
Use:Public/Civil, Military, International (customs port of entry)
Latitude:3808'02"N (38.133889)
Longitude:4614'06"E (46.235000)
Datum:WGS 1984
Elevation:4459 ft (1359 m)
Variation:5.69E (WMM2015 magnetic declination)
0.07 annual change
Runways:2
Longest:11825 × 148 ft (3604 × 45 m), paved

Time
Time Zone:UTC+3:30 (DST+4:30)
Local Time:

Weather
METAR:OITT 150800Z 25006KT 9999 FEW035 19/08 Q1025 A3027 NOSIG
TAF:OITT 150545Z 1506/1612 35003MPS 8000 FEW035
TEMPO 1512/1518 7000 FEW035CB SCT040 BKN100
BECMG 1520/1522 09003MPS
TEMPO 1600/1606 FEW035CB SCT040 BKN100

Related Locations
Nearby:
Farthest:GMR: 11391 mi / 18332 km
Mangareva [Totegegie], Gambier Islands, PF

Find:

   beyond  
but within

Other Information
Maps:
NOTAMs:
Links:
Sources:

  
  • flag of Iran
  

Sectional Chart

Flight Planning
at skyvector.com

Satellite Image

Google Maps Satellite view

 

Copyright © 2004-2018 Karl L. Swartz. All rights reserved.
The Great Circle Mapper name and logo are trademarks of the Great Circle Mapper.
All other trademarks mentioned herein belong to their respective owners.
Please see credits for attibutions and further copyright information.

  Follow gcmap on Facebook Follow gcmap on Twitter Follow gcmap on Google+ GCmap on LinkedIn

hCard Microformat

Geo Microformat